Time;durP1;ratioP1;P1;durP2;ratioP2;P2;SDS_P1;SDS_P2;PMS_P1;PMS_P2;Temp;Humidity;BMP_temperature;BMP_pressure;BME280_temperature;BME280_humidity;BME280_pressure;Samples;Min_cycle;Max_cycle;Signal;HPM_P1;HPM_P2
2022/03/26 00:00:52;;;;;;;65.65;34.83;;;;;;;7.51;58.81;101452.98;1650869;86;27464;-76
2022/03/26 00:03:18;;;;;;;68.33;34.80;;;;;;;7.49;58.84;101447.80;1667443;84;25922;-76
2022/03/26 00:05:45;;;;;;;65.03;32.60;;;;;;;7.49;59.19;101448.28;1661702;84;25778;-76
2022/03/26 00:08:12;;;;;;;73.47;36.10;;;;;;;7.47;59.40;101449.77;1648300;84;25806;-76
2022/03/26 00:10:40;;;;;;;70.97;35.13;;;;;;;7.45;59.65;101449.09;1653451;86;25934;-76
2022/03/26 00:13:06;;;;;;;75.85;36.48;;;;;;;7.43;59.82;101445.73;1653748;86;27490;-77
2022/03/26 00:15:33;;;;;;;69.62;34.80;;;;;;;7.41;59.79;101441.52;1635027;84;25814;-76
2022/03/26 00:18:00;;;;;;;68.57;33.88;;;;;;;7.41;60.00;101449.03;1644561;85;25810;-76
2022/03/26 00:20:26;;;;;;;65.35;33.88;;;;;;;7.39;60.66;101449.67;1680410;84;25842;-76
2022/03/26 00:22:52;;;;;;;65.22;33.28;;;;;;;7.36;60.47;101446.44;1677154;84;25746;-77
2022/03/26 00:25:19;;;;;;;65.75;36.63;;;;;;;7.32;60.80;101439.23;1667294;84;28256;-77
2022/03/26 00:27:45;;;;;;;69.58;35.60;;;;;;;7.31;60.62;101435.39;1652321;86;25853;-77
2022/03/26 00:30:12;;;;;;;67.92;34.55;;;;;;;7.29;60.86;101430.19;1607099;88;25874;-76
2022/03/26 00:32:38;;;;;;;68.05;33.15;;;;;;;7.27;61.00;101425.50;1604883;89;25852;-76
2022/03/26 00:35:09;;;;;;;69.53;34.48;;;;;;;7.27;61.28;101424.16;1653224;85;26522;-76
2022/03/26 00:37:36;;;;;;;71.37;35.87;;;;;;;7.26;61.24;101420.32;1656923;84;29651;-76
2022/03/26 00:40:05;;;;;;;63.73;33.40;;;;;;;7.26;61.43;101426.98;1666614;84;25774;-76
2022/03/26 00:42:31;;;;;;;62.48;33.78;;;;;;;7.25;61.39;101424.80;1661909;84;25859;-76
2022/03/26 00:44:57;;;;;;;61.02;32.70;;;;;;;7.24;61.85;101423.63;1646002;84;26224;-76
2022/03/26 00:47:24;;;;;;;69.22;34.30;;;;;;;7.21;61.90;101426.08;1660335;84;25859;-77
2022/03/26 00:49:51;;;;;;;68.57;34.38;;;;;;;7.20;61.97;101421.75;1656469;84;27470;-77
2022/03/26 00:52:18;;;;;;;59.50;31.75;;;;;;;7.18;62.01;101418.39;1650401;84;26437;-76
2022/03/26 00:54:44;;;;;;;65.17;33.98;;;;;;;7.17;62.12;101410.04;1649779;84;25890;-76
2022/03/26 00:57:10;;;;;;;64.25;31.48;;;;;;;7.17;62.36;101411.38;1653786;84;25731;-77
2022/03/26 00:59:37;;;;;;;61.00;32.55;;;;;;;7.16;62.44;101408.86;1648001;86;25791;-76
2022/03/26 01:02:03;;;;;;;65.30;33.15;;;;;;;7.16;62.54;101406.20;1652091;84;27577;-76
2022/03/26 01:04:29;;;;;;;60.20;32.90;;;;;;;7.15;62.77;101400.51;1649656;84;26563;-76
2022/03/26 01:06:56;;;;;;;64.50;33.92;;;;;;;7.13;62.81;101394.48;1649314;86;25744;-77
2022/03/26 01:09:22;;;;;;;56.90;30.25;;;;;;;7.12;62.79;101402.97;1655108;84;25829;-76
2022/03/26 01:11:48;;;;;;;68.28;34.80;;;;;;;7.11;63.07;101392.46;1650520;86;25828;-77
2022/03/26 01:14:14;;;;;;;64.92;31.85;;;;;;;7.11;62.85;101389.31;1668725;84;27448;-76
2022/03/26 01:16:41;;;;;;;66.37;32.35;;;;;;;7.12;62.99;101385.65;1652958;86;25833;-76
2022/03/26 01:19:07;;;;;;;63.63;34.33;;;;;;;7.11;63.28;101387.98;1651520;84;25311;-76
2022/03/26 01:21:33;;;;;;;54.30;31.50;;;;;;;7.11;63.56;101395.97;1660258;84;25471;-76
2022/03/26 01:23:59;;;;;;;60.75;32.25;;;;;;;7.08;63.23;101393.59;1661721;84;25741;-76
2022/03/26 01:26:25;;;;;;;67.05;32.58;;;;;;;7.09;63.25;101398.43;1646407;86;28315;-76
2022/03/26 01:28:52;;;;;;;67.00;32.78;;;;;;;7.09;63.39;101397.09;1656805;84;25681;-76
2022/03/26 01:31:19;;;;;;;60.45;32.50;;;;;;;7.09;63.66;101393.10;1653970;84;25934;-76
2022/03/26 01:33:48;;;;;;;66.02;32.67;;;;;;;7.06;63.54;101382.75;1659540;84;25926;-76
2022/03/26 01:36:14;;;;;;;67.85;33.75;;;;;;;7.06;63.69;101378.76;1667366;84;25953;-76
2022/03/26 01:38:40;;;;;;;73.15;34.40;;;;;;;7.03;63.86;101382.03;1611933;87;27406;-77
2022/03/26 01:41:07;;;;;;;66.40;33.73;;;;;;;7.03;63.91;101379.88;1654606;84;25909;-76
2022/03/26 01:43:34;;;;;;;63.90;33.33;;;;;;;7.01;63.94;101379.19;1652191;86;25956;-76
2022/03/26 01:46:01;;;;;;;66.77;33.23;;;;;;;6.99;64.02;101370.51;1655880;86;25805;-76
2022/03/26 01:48:28;;;;;;;67.35;33.95;;;;;;;6.96;64.29;101374.78;1637905;84;25931;-76
2022/03/26 01:50:54;;;;;;;68.70;32.42;;;;;;;6.94;64.13;101368.27;1643608;86;27477;-76
2022/03/26 01:53:20;;;;;;;67.12;33.95;;;;;;;6.93;64.67;101370.58;1655958;86;25905;-76
2022/03/26 01:55:49;;;;;;;65.30;32.70;;;;;;;6.93;64.47;101367.06;1656608;86;26140;-76
2022/03/26 01:58:15;;;;;;;61.45;32.80;;;;;;;6.90;64.62;101362.05;1652092;84;26024;-76
2022/03/26 02:00:41;;;;;;;65.62;34.33;;;;;;;6.88;64.52;101353.36;1649155;86;25932;-76
2022/03/26 02:03:08;;;;;;;61.63;33.40;;;;;;;6.87;64.86;101347.67;1650338;84;27481;-76
2022/03/26 02:05:35;;;;;;;63.45;31.45;;;;;;;6.83;64.97;101354.27;1658196;84;25787;-76
2022/03/26 02:08:03;;;;;;;68.25;34.58;;;;;;;6.81;65.42;101353.58;1643057;85;25846;-76
2022/03/26 02:10:29;;;;;;;65.57;31.68;;;;;;;6.79;65.25;101349.74;1646101;86;25610;-76
2022/03/26 02:12:56;;;;;;;62.80;32.15;;;;;;;6.78;65.42;101344.54;1664783;84;26566;-76
2022/03/26 02:15:22;;;;;;;62.40;31.15;;;;;;;6.76;65.27;101344.69;1655437;84;27450;-76
2022/03/26 02:17:48;;;;;;;59.38;29.05;;;;;;;6.77;65.60;101334.89;1665267;84;26518;-76
2022/03/26 02:20:15;;;;;;;71.10;35.25;;;;;;;6.75;65.93;101332.37;1679118;84;25951;-76
2022/03/26 02:22:41;;;;;;;64.12;35.03;;;;;;;6.72;65.86;101322.00;1646811;86;26303;-76
2022/03/26 02:25:09;;;;;;;63.92;32.80;;;;;;;6.71;65.94;101320.34;1614309;87;25934;-77
2022/03/26 02:27:37;;;;;;;61.13;32.65;;;;;;;6.71;65.83;101327.00;1627861;87;56313;-76
2022/03/26 02:30:05;;;;;;;60.78;33.23;;;;;;;6.71;66.19;101325.67;1636119;87;25930;-76
2022/03/26 02:32:32;;;;;;;67.40;33.25;;;;;;;6.72;66.44;101323.82;1636326;87;25848;-76
2022/03/26 02:34:58;;;;;;;60.43;33.58;;;;;;;6.72;66.18;101321.16;1637186;87;25817;-77
2022/03/26 02:37:24;;;;;;;65.12;33.00;;;;;;;6.73;66.15;101317.53;1636942;87;25307;-76
2022/03/26 02:39:51;;;;;;;63.75;31.68;;;;;;;6.73;66.69;101314.86;1647907;84;28364;-77
2022/03/26 02:42:18;;;;;;;61.28;33.13;;;;;;;6.73;66.58;101311.72;1670014;84;25791;-76
2022/03/26 02:44:44;;;;;;;62.43;32.65;;;;;;;6.72;66.41;101306.52;1658343;86;25801;-76
2022/03/26 02:47:11;;;;;;;57.70;30.90;;;;;;;6.73;66.50;101298.41;1658196;84;25750;-76
2022/03/26 02:49:38;;;;;;;66.25;32.63;;;;;;;6.73;66.95;101290.91;1655230;84;25902;-77
2022/03/26 02:52:05;;;;;;;68.47;35.23;;;;;;;6.73;66.87;101293.08;1649537;86;28320;-76
2022/03/26 02:54:32;;;;;;;62.83;32.40;;;;;;;6.71;66.97;101287.06;1652635;84;25783;-76
2022/03/26 02:56:58;;;;;;;69.07;34.30;;;;;;;6.71;67.18;101280.89;1651337;84;25918;-76
2022/03/26 02:59:24;;;;;;;61.40;34.23;;;;;;;6.68;67.06;101275.84;1650542;86;25836;-76
2022/03/26 03:01:52;;;;;;;59.75;31.05;;;;;;;6.70;66.96;101269.40;1662304;84;25820;-77
2022/03/26 03:04:20;;;;;;;58.33;34.18;;;;;;;6.72;67.26;101266.09;1650883;84;27502;-76
2022/03/26 03:06:48;;;;;;;60.38;31.60;;;;;;;6.71;67.47;101263.59;1664193;84;25778;-76
2022/03/26 03:09:15;;;;;;;58.28;31.48;;;;;;;6.71;67.52;101259.59;1642801;84;25848;-76
2022/03/26 03:11:41;;;;;;;58.70;33.08;;;;;;;6.71;67.83;101256.94;1648689;86;25766;-76
2022/03/26 03:14:08;;;;;;;64.12;33.13;;;;;;;6.71;67.99;101255.60;1648543;86;26065;-76
2022/03/26 03:16:34;;;;;;;69.72;32.88;;;;;;;6.73;67.67;101245.16;1653271;84;27552;-76
2022/03/26 03:19:00;;;;;;;59.80;30.12;;;;;;;6.73;67.65;101250.97;1644655;85;26575;-76
2022/03/26 03:21:26;;;;;;;60.30;30.12;;;;;;;6.71;68.17;101248.95;1661074;86;25781;-76
2022/03/26 03:23:53;;;;;;;54.23;29.07;;;;;;;6.73;68.00;101246.48;1653560;86;26295;-76
2022/03/26 03:26:19;;;;;;;57.62;31.20;;;;;;;6.76;68.04;101240.01;1648584;86;26651;-77
2022/03/26 03:28:45;;;;;;;59.35;29.77;;;;;;;6.77;67.83;101241.22;1632621;86;27446;-77
2022/03/26 03:31:11;;;;;;;63.92;29.63;;;;;;;6.76;68.18;101230.20;1637352;86;26075;-76
2022/03/26 03:33:38;;;;;;;57.60;29.15;;;;;;;6.78;68.06;101236.70;1645585;86;25325;-76
2022/03/26 03:36:06;;;;;;;57.17;30.12;;;;;;;6.78;68.57;101247.36;1643951;86;25762;-76
2022/03/26 03:38:32;;;;;;;60.80;29.27;;;;;;;6.80;68.39;101246.23;1632226;86;25358;-76
2022/03/26 03:40:58;;;;;;;58.73;29.85;;;;;;;6.82;68.54;101243.44;1640465;86;27454;-76
2022/03/26 03:43:25;;;;;;;51.30;27.73;;;;;;;6.82;68.39;101245.59;1633870;86;25850;-76
2022/03/26 03:45:51;;;;;;;52.70;27.85;;;;;;;6.83;68.36;101242.44;1648234;86;25901;-76
2022/03/26 03:48:18;;;;;;;57.65;29.35;;;;;;;6.83;68.25;101244.62;1632960;86;25858;-77
2022/03/26 03:50:47;;;;;;;53.63;29.42;;;;;;;6.82;68.29;101244.77;1645990;86;26503;-76
2022/03/26 03:53:15;;;;;;;62.88;30.55;;;;;;;6.81;68.36;101245.74;1659662;86;27479;-77
2022/03/26 03:55:41;;;;;;;55.63;28.85;;;;;;;6.79;68.84;101237.91;1640420;86;26012;-76
2022/03/26 03:58:08;;;;;;;59.65;30.00;;;;;;;6.79;68.49;101237.91;1649553;86;25817;-77
2022/03/26 04:00:34;;;;;;;59.58;30.92;;;;;;;6.79;68.63;101235.73;1648376;86;26532;-76
2022/03/26 04:03:00;;;;;;;60.05;31.68;;;;;;;6.77;68.88;101224.39;1650268;86;26653;-76
2022/03/26 04:05:26;;;;;;;61.68;31.10;;;;;;;6.74;68.74;101227.34;1633366;86;28300;-76
2022/03/26 04:07:52;;;;;;;57.53;28.30;;;;;;;6.72;68.94;101222.17;1618934;86;25791;-76
2022/03/26 04:10:19;;;;;;;61.15;31.05;;;;;;;6.71;68.88;101220.99;1610092;86;26577;-77
2022/03/26 04:12:46;;;;;;;57.20;30.23;;;;;;;6.70;68.76;101212.16;1612624;86;25822;-76
2022/03/26 04:15:14;;;;;;;54.63;30.27;;;;;;;6.69;69.06;101210.47;1609603;86;25814;-76
2022/03/26 04:17:42;;;;;;;56.10;27.87;;;;;;;6.70;68.77;101205.50;1612552;86;27482;-76
2022/03/26 04:20:10;;;;;;;61.18;30.65;;;;;;;6.70;70.00;101204.66;1609471;86;25888;-76
2022/03/26 04:22:38;;;;;;;56.70;30.48;;;;;;;6.71;69.16;101201.88;1614231;86;25785;-76
2022/03/26 04:25:06;;;;;;;63.45;29.42;;;;;;;6.74;69.74;101210.03;1617550;86;26645;-76
2022/03/26 04:27:33;;;;;;;62.20;30.85;;;;;;;6.75;69.75;101203.73;1632415;87;25945;-76
2022/03/26 04:29:59;;;;;;;55.75;28.25;;;;;;;6.76;69.73;101206.24;1607714;87;27488;-76
2022/03/26 04:32:25;;;;;;;63.58;29.95;;;;;;;6.78;69.46;101212.26;1605115;87;25953;-76
2022/03/26 04:34:51;;;;;;;53.78;27.98;;;;;;;6.78;69.97;101213.59;1653949;86;25910;-76
2022/03/26 04:37:18;;;;;;;53.92;30.05;;;;;;;6.79;69.60;101214.44;1653807;86;26290;-76
2022/03/26 04:39:44;;;;;;;59.60;31.00;;;;;;;6.79;69.50;101205.11;1653836;86;25925;-76
2022/03/26 04:42:10;;;;;;;57.10;30.05;;;;;;;6.78;69.41;101202.09;1612437;87;27539;-77
2022/03/26 04:44:36;;;;;;;55.92;30.72;;;;;;;6.78;69.35;101198.94;1607022;87;25785;-76
2022/03/26 04:47:03;;;;;;;56.90;30.12;;;;;;;6.77;69.79;101191.11;1659567;86;26431;-76
2022/03/26 04:49:29;;;;;;;56.92;28.80;;;;;;;6.78;69.44;101196.77;1659617;84;26236;-76
2022/03/26 04:51:56;;;;;;;49.63;25.97;;;;;;;6.78;69.82;101192.77;1653681;85;26012;-77
2022/03/26 04:54:23;;;;;;;53.45;28.75;;;;;;;6.79;70.34;101189.14;1655105;86;28362;-77
2022/03/26 04:56:49;;;;;;;61.00;29.82;;;;;;;6.80;69.70;101194.83;1659594;86;25970;-76
2022/03/26 04:59:15;;;;;;;54.18;29.55;;;;;;;6.80;69.87;101195.64;1667382;84;26434;-76
2022/03/26 05:01:44;;;;;;;59.15;30.23;;;;;;;6.81;69.90;101181.84;1650237;84;25827;-76
2022/03/26 05:04:11;;;;;;;60.60;28.65;;;;;;;6.82;69.92;101179.54;1657198;84;25750;-77
2022/03/26 05:06:37;;;;;;;58.42;27.70;;;;;;;6.81;70.41;101188.50;1655759;86;27551;-76
2022/03/26 05:09:03;;;;;;;55.50;28.12;;;;;;;6.83;70.25;101175.87;1654885;86;26038;-76
2022/03/26 05:11:30;;;;;;;54.73;27.87;;;;;;;6.83;70.17;101178.05;1655397;85;26433;-76
2022/03/26 05:13:57;;;;;;;53.80;28.75;;;;;;;6.85;70.32;101177.89;1653806;86;25804;-76
2022/03/26 05:16:23;;;;;;;59.50;29.80;;;;;;;6.87;70.59;101175.43;1654315;86;26024;-76
2022/03/26 05:18:49;;;;;;;61.55;29.37;;;;;;;6.90;70.52;101169.81;1655557;86;27478;-77
2022/03/26 05:21:15;;;;;;;67.80;31.00;;;;;;;6.92;70.74;101165.17;1650433;84;25814;-77
2022/03/26 05:23:42;;;;;;;53.48;28.98;;;;;;;6.95;70.59;101159.53;1654212;85;25756;-76
2022/03/26 05:26:08;;;;;;;56.65;28.67;;;;;;;6.97;71.00;101156.22;1652979;85;26477;-76
2022/03/26 05:28:34;;;;;;;52.90;28.70;;;;;;;6.99;71.10;101157.43;1647010;85;25823;-76
2022/03/26 05:31:00;;;;;;;59.98;28.67;;;;;;;7.01;71.88;101150.12;1639674;86;27473;-76
2022/03/26 05:33:27;;;;;;;56.85;29.60;;;;;;;7.03;71.08;101149.48;1645064;84;25751;-76
2022/03/26 05:35:53;;;;;;;53.10;29.65;;;;;;;7.07;71.22;101139.34;1614745;85;25887;-76
2022/03/26 05:38:19;;;;;;;54.53;28.85;;;;;;;7.12;71.38;101137.08;1648509;84;25842;-76
2022/03/26 05:40:45;;;;;;;49.42;26.45;;;;;;;7.18;71.54;101141.31;1652550;84;25999;-76
2022/03/26 05:43:12;;;;;;;54.70;28.62;;;;;;;7.24;71.49;101142.03;1655445;84;27524;-76
2022/03/26 05:45:38;;;;;;;56.13;30.08;;;;;;;7.30;71.27;101135.23;1648609;84;25867;-76
2022/03/26 05:48:07;;;;;;;54.08;28.80;;;;;;;7.34;71.16;101140.12;1647630;84;25855;-76
2022/03/26 05:50:34;;;;;;;58.50;28.45;;;;;;;7.38;71.25;101125.98;1661819;84;25913;-76
2022/03/26 05:53:03;;;;;;;51.05;28.17;;;;;;;7.43;71.39;101131.21;1674188;84;27621;-77
2022/03/26 05:55:29;;;;;;;55.12;28.15;;;;;;;7.48;71.43;101131.59;1675338;84;27469;-78
2022/03/26 05:57:55;;;;;;;54.23;29.50;;;;;;;7.54;70.94;101138.97;1658023;84;25747;-77
2022/03/26 06:00:21;;;;;;;56.00;29.20;;;;;;;7.61;71.29;101136.53;1650965;86;26421;-77
2022/03/26 06:02:47;;;;;;;42.48;23.50;;;;;;;7.68;70.78;101141.56;1646792;86;26058;-77
2022/03/26 06:05:14;;;;;;;51.55;25.97;;;;;;;7.75;71.16;101139.47;1646741;85;25898;-77
2022/03/26 06:07:40;;;;;;;48.10;27.50;;;;;;;7.84;70.94;101139.52;1656829;85;27466;-77
2022/03/26 06:10:07;;;;;;;51.70;27.32;;;;;;;7.92;70.69;101144.91;1656226;86;26227;-76
2022/03/26 06:12:35;;;;;;;50.28;26.50;;;;;;;8.01;70.53;101141.30;1660246;84;26394;-76
2022/03/26 06:15:03;;;;;;;50.83;26.48;;;;;;;8.09;70.47;101136.86;1655855;84;26712;-76
2022/03/26 06:17:30;;;;;;;46.90;27.07;;;;;;;8.17;70.35;101126.22;1659574;84;26709;-76
2022/03/26 06:19:56;;;;;;;48.28;26.15;;;;;;;8.27;70.38;101126.16;1654414;84;28357;-77
2022/03/26 06:22:22;;;;;;;50.65;27.55;;;;;;;8.35;69.94;101125.70;1650974;84;25859;-77
2022/03/26 06:24:48;;;;;;;50.80;29.12;;;;;;;8.43;69.72;101119.55;1653426;84;25885;-76
2022/03/26 06:27:15;;;;;;;57.38;29.50;;;;;;;8.48;69.62;101103.41;1650335;86;26083;-76
2022/03/26 06:29:42;;;;;;;51.48;28.27;;;;;;;8.52;69.40;101114.09;1644829;86;25940;-76
2022/03/26 06:32:09;;;;;;;49.13;25.68;;;;;;;8.56;69.13;101118.61;1649993;84;27553;-77
2022/03/26 06:34:35;;;;;;;44.50;25.85;;;;;;;8.62;69.15;101117.95;1652136;84;25839;-76
2022/03/26 06:37:02;;;;;;;50.95;29.00;;;;;;;8.68;69.22;101111.99;1652807;84;26375;-76
2022/03/26 06:39:29;;;;;;;54.75;28.95;;;;;;;8.75;69.08;101107.66;1642620;86;25873;-76
2022/03/26 06:41:56;;;;;;;51.37;27.32;;;;;;;8.82;69.08;101110.51;1646843;84;25937;-76
2022/03/26 06:44:23;;;;;;;46.20;25.62;;;;;;;8.89;68.98;101090.17;1651309;84;27541;-76
2022/03/26 06:46:49;;;;;;;44.75;25.32;;;;;;;8.95;68.59;101094.36;1653389;84;26617;-76
2022/03/26 06:49:15;;;;;;;49.98;27.45;;;;;;;9.01;68.51;101100.87;1652167;84;25793;-76
2022/03/26 06:51:41;;;;;;;52.73;26.75;;;;;;;9.05;68.43;101104.39;1648077;86;26294;-77
2022/03/26 06:54:08;;;;;;;45.92;25.08;;;;;;;9.13;68.46;101104.91;1637844;86;25869;-76
2022/03/26 06:56:34;;;;;;;56.90;31.73;;;;;;;9.21;68.46;101104.42;1661948;86;27463;-77
2022/03/26 06:59:01;;;;;;;77.42;41.90;;;;;;;9.28;68.06;101100.59;1662652;85;25805;-76
2022/03/26 07:01:27;;;;;;;54.80;31.80;;;;;;;9.34;68.03;101093.23;1656790;86;26496;-76
2022/03/26 07:03:59;;;;;;;41.60;24.07;;;;;;;9.38;67.82;101091.89;1648902;84;26816;-76
2022/03/26 07:06:25;;;;;;;44.63;25.43;;;;;;;9.41;67.69;101102.77;1642385;84;25894;-77
2022/03/26 07:08:54;;;;;;;51.50;28.23;;;;;;;9.43;67.57;101099.42;1649427;84;26488;-76
2022/03/26 07:11:20;;;;;;;42.65;24.50;;;;;;;9.45;67.62;101100.09;1657135;84;25870;-76
2022/03/26 07:13:46;;;;;;;41.23;23.47;;;;;;;9.50;67.48;101097.73;1665010;84;25818;-76
2022/03/26 07:16:13;;;;;;;44.10;24.77;;;;;;;9.54;67.31;101101.77;1651617;84;25822;-76
2022/03/26 07:18:39;;;;;;;42.25;23.02;;;;;;;9.62;67.40;101091.05;1656603;84;26688;-76
2022/03/26 07:21:05;;;;;;;44.83;22.93;;;;;;;9.72;67.16;101091.70;1664725;84;27509;-76
2022/03/26 07:23:31;;;;;;;39.70;22.32;;;;;;;9.80;66.84;101087.17;1665912;84;25401;-76
2022/03/26 07:25:57;;;;;;;39.45;23.22;;;;;;;9.89;66.74;101094.19;1639873;86;25793;-76
2022/03/26 07:28:24;;;;;;;41.68;24.67;;;;;;;9.97;66.42;101083.95;1645105;84;26935;-77
2022/03/26 07:30:50;;;;;;;35.08;19.82;;;;;;;10.05;66.40;101094.14;1645868;84;26562;-76
2022/03/26 07:33:16;;;;;;;37.40;21.45;;;;;;;10.16;65.80;101070.74;1651408;84;27033;-77
2022/03/26 07:35:44;;;;;;;39.75;22.30;;;;;;;10.28;65.90;101082.73;1659889;84;26617;-76
2022/03/26 07:38:12;;;;;;;41.68;22.70;;;;;;;10.40;65.87;101085.35;1649636;84;25893;-76
2022/03/26 07:40:40;;;;;;;40.38;21.52;;;;;;;10.53;65.57;101081.62;1644079;86;25751;-76
2022/03/26 07:43:09;;;;;;;37.48;20.92;;;;;;;10.63;65.09;101079.55;1660535;86;26034;-76
2022/03/26 07:45:36;;;;;;;41.50;20.65;;;;;;;10.73;64.80;101074.83;1663039;86;27531;-76
2022/03/26 07:48:03;;;;;;;38.15;21.37;;;;;;;10.83;64.31;101066.05;1660352;86;25814;-76
2022/03/26 07:50:31;;;;;;;32.38;17.57;;;;;;;10.91;64.12;101070.51;1653176;84;25820;-77
2022/03/26 07:52:59;;;;;;;36.48;20.27;;;;;;;10.97;64.33;101071.17;1661948;84;25968;-76
2022/03/26 07:55:25;;;;;;;33.88;20.05;;;;;;;11.02;64.14;101074.97;1649659;84;25987;-76
2022/03/26 07:57:52;;;;;;;33.48;20.12;;;;;;;11.11;63.57;101073.06;1632689;86;27531;-76
2022/03/26 08:00:18;;;;;;;30.15;18.15;;;;;;;11.19;63.41;101074.34;1655216;84;25798;-76
2022/03/26 08:02:44;;;;;;;32.85;16.82;;;;;;;11.30;63.59;101079.29;1643517;86;26665;-77
2022/03/26 08:05:10;;;;;;;28.80;15.38;;;;;;;11.44;63.66;101075.84;1632050;86;25871;-76
2022/03/26 08:07:37;;;;;;;25.75;14.05;;;;;;;11.58;62.56;101069.66;1644473;84;25980;-76
2022/03/26 08:10:03;;;;;;;23.30;12.33;;;;;;;11.74;62.98;101075.42;1649984;84;28268;-76
2022/03/26 08:12:30;;;;;;;26.55;12.03;;;;;;;11.86;62.41;101059.19;1655610;84;26442;-76
2022/03/26 08:14:56;;;;;;;24.07;13.65;;;;;;;11.96;61.90;101061.92;1636876;86;25791;-76
2022/03/26 08:17:24;;;;;;;22.40;11.55;;;;;;;12.09;62.47;101070.67;1640835;86;25623;-77
2022/03/26 08:19:50;;;;;;;21.45;12.13;;;;;;;12.26;61.65;101054.70;1642395;84;26596;-77
2022/03/26 08:22:17;;;;;;;20.60;10.90;;;;;;;12.36;61.83;101070.01;1666075;84;28318;-76
2022/03/26 08:24:43;;;;;;;21.90;10.80;;;;;;;12.49;62.06;101058.62;1651188;85;25866;-76
2022/03/26 08:27:09;;;;;;;19.42;10.58;;;;;;;12.64;61.45;101054.05;1638999;86;26515;-77
2022/03/26 08:29:35;;;;;;;16.17;10.75;;;;;;;12.72;61.52;101064.19;1631510;87;26020;-77
2022/03/26 08:32:04;;;;;;;24.45;10.60;;;;;;;12.78;61.49;101058.55;1641864;84;25914;-76
2022/03/26 08:34:30;;;;;;;25.95;13.10;;;;;;;12.84;61.48;101057.28;1632746;84;27561;-77
2022/03/26 08:36:57;;;;;;;23.05;13.15;;;;;;;12.86;61.26;101057.92;1632718;86;25912;-76
2022/03/26 08:39:23;;;;;;;20.15;11.70;;;;;;;12.88;61.21;101065.28;1675338;84;25866;-76
2022/03/26 08:41:49;;;;;;;20.52;11.48;;;;;;;12.90;61.05;101063.73;1656969;84;25686;-77
2022/03/26 08:44:16;;;;;;;24.63;12.23;;;;;;;12.89;61.22;101071.50;1657201;86;25847;-77
2022/03/26 08:46:42;;;;;;;20.65;10.95;;;;;;;12.87;61.14;101064.95;1669651;84;28367;-76
2022/03/26 08:49:08;;;;;;;19.92;9.65;;;;;;;12.91;61.44;101070.30;1653927;84;25934;-76
2022/03/26 08:51:34;;;;;;;17.30;9.53;;;;;;;12.95;61.21;101069.39;1643359;85;25813;-76
2022/03/26 08:54:01;;;;;;;16.45;9.95;;;;;;;12.96;61.86;101072.38;1634743;87;26225;-77
2022/03/26 08:56:28;;;;;;;20.92;11.18;;;;;;;12.98;61.34;101071.71;1647231;84;25794;-76
2022/03/26 08:58:54;;;;;;;15.40;9.23;;;;;;;12.99;61.51;101072.02;1639998;86;26883;-77
2022/03/26 09:01:21;;;;;;;21.95;11.05;;;;;;;12.98;60.69;101078.44;1605168;89;26619;-77
2022/03/26 09:03:50;;;;;;;18.92;10.10;;;;;;;12.89;61.19;101084.44;1632090;87;25779;-76
2022/03/26 09:06:15;;;;;;;22.10;12.37;;;;;;;12.84;61.21;101087.36;1658418;86;25863;-76
2022/03/26 09:08:41;;;;;;;19.85;11.28;;;;;;;12.77;61.28;101083.75;1655590;85;25969;-76
2022/03/26 09:11:07;;;;;;;19.07;10.93;;;;;;;12.69;61.40;101089.24;1656230;86;27468;-76
2022/03/26 09:13:34;;;;;;;20.80;11.50;;;;;;;12.63;61.81;101094.03;1656376;86;26043;-77
2022/03/26 09:16:01;;;;;;;18.15;10.90;;;;;;;12.53;61.89;101098.34;1656488;86;25849;-76
2022/03/26 09:18:28;;;;;;;17.55;11.10;;;;;;;12.46;62.24;101103.32;1656589;86;25781;-76
2022/03/26 09:20:55;;;;;;;18.87;11.68;;;;;;;12.35;62.23;101097.41;1656292;86;25964;-77
2022/03/26 09:23:22;;;;;;;22.50;12.28;;;;;;;12.27;62.41;101094.79;1657386;86;28354;-77
2022/03/26 09:25:49;;;;;;;18.90;11.50;;;;;;;12.24;62.61;101097.02;1647297;86;25953;-76
2022/03/26 09:28:15;;;;;;;18.95;12.25;;;;;;;12.22;62.80;101098.56;1656462;86;25834;-77
2022/03/26 09:30:41;;;;;;;24.98;13.08;;;;;;;12.19;63.36;101093.55;1655989;86;25773;-76
2022/03/26 09:33:07;;;;;;;20.50;12.40;;;;;;;12.17;64.03;101099.62;1656271;84;25810;-77
2022/03/26 09:35:34;;;;;;;24.85;12.73;;;;;;;12.16;64.33;101089.91;1653693;86;28240;-77
2022/03/26 09:38:00;;;;;;;20.72;12.70;;;;;;;12.13;64.48;101096.98;1652574;84;25909;-77
2022/03/26 09:40:26;;;;;;;28.50;13.25;;;;;;;12.14;64.58;101103.19;1646673;86;26628;-77
2022/03/26 09:42:53;;;;;;;21.65;11.50;;;;;;;12.16;64.89;101102.50;1669859;85;25824;-77
2022/03/26 09:45:20;;;;;;;22.07;11.57;;;;;;;12.11;64.90;101104.39;1670313;85;26554;-76
2022/03/26 09:47:46;;;;;;;22.87;12.78;;;;;;;12.08;65.02;101097.22;1670310;85;27469;-76
2022/03/26 09:50:13;;;;;;;19.10;11.12;;;;;;;12.04;64.92;101098.61;1668158;85;25367;-77
2022/03/26 09:52:40;;;;;;;24.02;13.32;;;;;;;12.01;65.18;101107.02;1646033;86;26536;-77
2022/03/26 09:55:12;;;;;;;26.70;14.98;;;;;;;11.96;65.42;101100.02;1646137;86;25865;-76
2022/03/26 09:57:39;;;;;;;27.32;14.70;;;;;;;11.96;65.23;101110.25;1646423;87;25824;-77
2022/03/26 10:00:09;;;;;;;26.23;17.48;;;;;;;11.98;65.93;101113.59;1646108;86;28432;-76
2022/03/26 10:02:38;;;;;;;28.85;18.27;;;;;;;11.96;65.79;101109.41;1646027;86;26120;-76
2022/03/26 10:05:08;;;;;;;35.85;19.90;;;;;;;11.86;66.25;101114.22;1645987;86;26518;-76
2022/03/26 10:07:34;;;;;;;32.50;20.20;;;;;;;11.73;66.65;101114.00;1646424;86;25828;-76
2022/03/26 10:10:03;;;;;;;33.20;19.52;;;;;;;11.64;66.62;101114.05;1646003;86;26210;-76
2022/03/26 10:12:30;;;;;;;26.57;17.95;;;;;;;11.59;66.65;101124.48;1646148;86;27407;-77
2022/03/26 10:14:59;;;;;;;38.83;18.65;;;;;;;11.55;67.66;101125.86;1645924;86;25909;-77
2022/03/26 10:17:37;;;;;;;31.05;18.92;;;;;;;11.47;68.49;101129.95;1648168;85;25830;-76
2022/03/26 10:20:10;;;;;;;28.67;19.02;;;;;;;11.40;68.73;101134.36;1647489;86;26538;-76
2022/03/26 10:22:46;;;;;;;32.83;18.87;;;;;;;11.33;68.62;101132.05;1638663;86;25879;-76
2022/03/26 10:25:20;;;;;;;31.00;18.92;;;;;;;11.20;69.04;101134.52;1662017;84;27474;-77
2022/03/26 10:27:50;;;;;;;30.75;19.60;;;;;;;11.08;68.77;101140.44;1635714;86;25853;-76
2022/03/26 10:33:27;;;;;;;29.87;20.52;;;;;;;10.99;69.30;101142.86;1658743;84;25778;-77
2022/03/26 10:35:57;;;;;;;32.53;20.23;;;;;;;10.96;69.83;101144.03;1662069;84;26192;-77
2022/03/26 10:38:38;;;;;;;38.67;22.27;;;;;;;10.96;70.11;101145.87;1679593;84;27487;-77
2022/03/26 10:41:07;;;;;;;34.92;22.87;;;;;;;10.93;70.37;101156.44;1655746;86;26597;-77
2022/03/26 10:43:38;;;;;;;31.07;19.77;;;;;;;10.90;70.06;101146.58;1667425;84;25844;-76
2022/03/26 10:46:04;;;;;;;35.48;20.62;;;;;;;10.94;69.96;101150.08;1646679;84;25755;-76
2022/03/26 10:48:34;;;;;;;36.17;24.27;;;;;;;10.94;69.55;101150.58;1677451;84;26485;-77
2022/03/26 10:51:18;;;;;;;37.08;23.07;;;;;;;10.90;69.96;101158.14;1647930;84;27488;-76
2022/03/26 10:53:52;;;;;;;37.53;23.32;;;;;;;10.90;69.52;101158.64;1641489;86;26236;-76
2022/03/26 10:56:15;;;;;;;39.38;24.80;;;;;;;10.92;69.62;101157.96;1656043;84;26659;-76
2022/03/26 10:58:46;;;;;;;36.50;22.85;;;;;;;10.93;69.37;101156.44;1654361;84;25862;-77
2022/03/26 11:01:12;;;;;;;36.80;21.48;;;;;;;10.96;69.37;101156.59;1646746;84;25968;-76
2022/03/26 11:03:39;;;;;;;31.93;18.67;;;;;;;10.92;69.15;101160.64;1648693;84;27475;-76
2022/03/26 11:06:08;;;;;;;28.12;17.87;;;;;;;10.86;69.47;101172.91;1661775;84;25806;-77
2022/03/26 11:08:36;;;;;;;33.40;20.43;;;;;;;10.80;69.44;101169.06;1653572;86;25778;-77
2022/03/26 11:11:11;;;;;;;31.77;17.98;;;;;;;10.76;69.49;101165.06;1605094;89;26001;-79
2022/03/26 11:13:51;;;;;;;31.55;18.82;;;;;;;10.77;69.38;101165.91;1637617;86;26675;-76
2022/03/26 11:16:41;;;;;;;32.17;20.80;;;;;;;10.80;69.62;101170.41;1635562;87;28279;-76